LIMJ METAR and TAF | Updated Today

LIMJ METAR

Genoa Cristoforo Colombo Airport

Observation time: 32 min. ago

LIMJ 200750Z 15004KT CAVOK 21/16 Q1027

Need help? Read our tutorial on how to read METARs or read the parsed version below.

Genoa Cristoforo Colombo Airport (LIMJ) METAR

  • Weather conditions on Fri, 20 May 2022 07:50:00 +0000 (32 min. ago):
  • Present conditions: Dry
  • Clouds: Clear skies
  • Visibility: Greater than 10 km
  • Wind: 150 degrees at 4 knots
  • Temperature: 21 celsius
  • Dew point: 16 celsius
  • Pressure: 1027 millibars
  • Remarks: None


Useful to know...

LIMJ TAF

Genoa Cristoforo Colombo Airport

TAF LIMJ 200500Z 2006/2106 VRB06KT CAVOK BECMG 2008/2010 12010KT BECMG 2018/2020 VRB05KT
Observation time: 3:22 hr. ago
Need help? Read our tutorial on how to read TAFs or read the parsed version below.

Parsed version of TAF for Genoa Cristoforo Colombo Airport (LIMJ)

  • From 20 May at 06:00 UTC, to day 21 of the month at 06:00 UTC
  • Visibility: Greater than 10 km
  • Wind: Variable at 6
  • Expected to arise soon, from 20 May at 08:00 UTC, to day 20 of the month at 10:00 UTC
  • Wind: 120 degrees at 10
  • Expected to arise soon, from 20 May at 18:00 UTC, to day 20 of the month at 20:00 UTC
  • Wind: Variable at 5